sensor_id;sensor_type;location;lat;lon;timestamp;P1;durP1;ratioP1;P2;durP2;ratioP2
12554;SDS011;6343;50.868;4.700;2023-04-03T00:01:41;9.57;;;4.30;;
12554;SDS011;6343;50.868;4.700;2023-04-03T00:04:07;4.70;;;4.00;;
12554;SDS011;6343;50.868;4.700;2023-04-03T00:06:33;6.97;;;4.00;;
12554;SDS011;6343;50.868;4.700;2023-04-03T00:09:00;6.97;;;4.53;;
12554;SDS011;6343;50.868;4.700;2023-04-03T00:11:26;5.70;;;4.03;;
12554;SDS011;6343;50.868;4.700;2023-04-03T00:13:52;4.63;;;3.23;;
12554;SDS011;6343;50.868;4.700;2023-04-03T00:16:18;4.57;;;3.43;;
12554;SDS011;6343;50.868;4.700;2023-04-03T00:18:44;5.97;;;4.13;;
12554;SDS011;6343;50.868;4.700;2023-04-03T00:21:12;6.47;;;3.63;;
12554;SDS011;6343;50.868;4.700;2023-04-03T00:23:38;9.40;;;3.90;;
12554;SDS011;6343;50.868;4.700;2023-04-03T00:26:04;7.00;;;3.93;;
12554;SDS011;6343;50.868;4.700;2023-04-03T00:28:30;6.23;;;4.00;;
12554;SDS011;6343;50.868;4.700;2023-04-03T00:30:57;7.23;;;3.67;;
12554;SDS011;6343;50.868;4.700;2023-04-03T00:33:23;7.77;;;3.40;;
12554;SDS011;6343;50.868;4.700;2023-04-03T00:35:50;5.17;;;3.73;;
12554;SDS011;6343;50.868;4.700;2023-04-03T00:38:16;6.37;;;3.90;;
12554;SDS011;6343;50.868;4.700;2023-04-03T00:40:43;4.60;;;3.33;;
12554;SDS011;6343;50.868;4.700;2023-04-03T00:43:23;5.20;;;3.63;;
12554;SDS011;6343;50.868;4.700;2023-04-03T00:45:50;6.13;;;3.50;;
12554;SDS011;6343;50.868;4.700;2023-04-03T00:48:18;5.13;;;3.30;;
12554;SDS011;6343;50.868;4.700;2023-04-03T00:50:45;5.57;;;3.70;;
12554;SDS011;6343;50.868;4.700;2023-04-03T00:53:16;5.50;;;3.53;;
12554;SDS011;6343;50.868;4.700;2023-04-03T00:55:43;5.47;;;3.77;;
12554;SDS011;6343;50.868;4.700;2023-04-03T00:58:09;4.90;;;3.60;;
12554;SDS011;6343;50.868;4.700;2023-04-03T01:00:37;7.53;;;3.80;;
12554;SDS011;6343;50.868;4.700;2023-04-03T01:03:06;6.97;;;3.27;;
12554;SDS011;6343;50.868;4.700;2023-04-03T01:05:32;5.77;;;3.87;;
12554;SDS011;6343;50.868;4.700;2023-04-03T01:07:58;8.67;;;4.13;;
12554;SDS011;6343;50.868;4.700;2023-04-03T01:10:25;5.73;;;3.67;;
12554;SDS011;6343;50.868;4.700;2023-04-03T01:12:51;8.70;;;3.70;;
12554;SDS011;6343;50.868;4.700;2023-04-03T01:15:19;5.53;;;3.70;;
12554;SDS011;6343;50.868;4.700;2023-04-03T01:17:50;6.70;;;3.60;;
12554;SDS011;6343;50.868;4.700;2023-04-03T01:25:30;4.70;;;3.60;;
12554;SDS011;6343;50.868;4.700;2023-04-03T01:27:57;4.17;;;3.40;;
12554;SDS011;6343;50.868;4.700;2023-04-03T01:30:24;4.67;;;3.77;;
12554;SDS011;6343;50.868;4.700;2023-04-03T01:32:52;5.83;;;3.83;;
12554;SDS011;6343;50.868;4.700;2023-04-03T01:35:18;6.63;;;3.90;;
12554;SDS011;6343;50.868;4.700;2023-04-03T01:37:44;5.13;;;3.50;;
12554;SDS011;6343;50.868;4.700;2023-04-03T01:40:10;4.10;;;3.23;;
12554;SDS011;6343;50.868;4.700;2023-04-03T01:42:36;6.00;;;3.90;;
12554;SDS011;6343;50.868;4.700;2023-04-03T01:45:02;4.40;;;3.90;;
12554;SDS011;6343;50.868;4.700;2023-04-03T01:47:28;6.53;;;3.13;;
12554;SDS011;6343;50.868;4.700;2023-04-03T01:49:55;5.53;;;4.10;;
12554;SDS011;6343;50.868;4.700;2023-04-03T01:52:21;6.33;;;3.80;;
12554;SDS011;6343;50.868;4.700;2023-04-03T01:54:47;5.27;;;3.93;;
12554;SDS011;6343;50.868;4.700;2023-04-03T01:57:13;7.10;;;4.93;;
12554;SDS011;6343;50.868;4.700;2023-04-03T01:59:40;5.67;;;3.67;;
12554;SDS011;6343;50.868;4.700;2023-04-03T02:02:06;5.77;;;3.73;;
12554;SDS011;6343;50.868;4.700;2023-04-03T02:04:32;5.97;;;3.73;;
12554;SDS011;6343;50.868;4.700;2023-04-03T02:06:58;5.87;;;4.00;;
12554;SDS011;6343;50.868;4.700;2023-04-03T02:09:24;5.57;;;3.93;;
12554;SDS011;6343;50.868;4.700;2023-04-03T02:11:52;10.30;;;4.13;;
12554;SDS011;6343;50.868;4.700;2023-04-03T02:14:18;6.87;;;3.47;;
12554;SDS011;6343;50.868;4.700;2023-04-03T02:16:44;8.80;;;3.93;;
12554;SDS011;6343;50.868;4.700;2023-04-03T02:19:10;7.77;;;4.00;;
12554;SDS011;6343;50.868;4.700;2023-04-03T02:21:36;5.73;;;3.57;;
12554;SDS011;6343;50.868;4.700;2023-04-03T02:24:02;5.37;;;3.80;;
12554;SDS011;6343;50.868;4.700;2023-04-03T02:26:28;5.23;;;3.73;;
12554;SDS011;6343;50.868;4.700;2023-04-03T02:28:54;6.87;;;3.87;;
12554;SDS011;6343;50.868;4.700;2023-04-03T02:31:21;7.03;;;3.87;;
12554;SDS011;6343;50.868;4.700;2023-04-03T02:33:47;5.57;;;4.07;;
12554;SDS011;6343;50.868;4.700;2023-04-03T02:36:13;6.47;;;3.80;;
12554;SDS011;6343;50.868;4.700;2023-04-03T02:38:39;8.23;;;4.20;;
12554;SDS011;6343;50.868;4.700;2023-04-03T02:41:06;4.93;;;3.73;;
12554;SDS011;6343;50.868;4.700;2023-04-03T02:43:33;8.10;;;4.30;;
12554;SDS011;6343;50.868;4.700;2023-04-03T02:45:59;8.43;;;4.13;;
12554;SDS011;6343;50.868;4.700;2023-04-03T02:48:25;8.03;;;3.93;;
12554;SDS011;6343;50.868;4.700;2023-04-03T02:50:51;5.13;;;4.00;;
12554;SDS011;6343;50.868;4.700;2023-04-03T02:53:18;5.60;;;4.10;;
12554;SDS011;6343;50.868;4.700;2023-04-03T02:55:44;7.87;;;4.23;;
12554;SDS011;6343;50.868;4.700;2023-04-03T02:58:10;8.27;;;4.00;;
12554;SDS011;6343;50.868;4.700;2023-04-03T03:00:37;6.23;;;3.87;;
12554;SDS011;6343;50.868;4.700;2023-04-03T03:03:03;6.73;;;4.10;;
12554;SDS011;6343;50.868;4.700;2023-04-03T03:05:29;6.40;;;4.00;;
12554;SDS011;6343;50.868;4.700;2023-04-03T03:07:55;6.40;;;3.70;;
12554;SDS011;6343;50.868;4.700;2023-04-03T03:10:22;7.37;;;4.17;;
12554;SDS011;6343;50.868;4.700;2023-04-03T03:12:48;6.97;;;3.60;;
12554;SDS011;6343;50.868;4.700;2023-04-03T03:15:14;6.47;;;4.53;;
12554;SDS011;6343;50.868;4.700;2023-04-03T03:17:41;4.53;;;3.97;;
12554;SDS011;6343;50.868;4.700;2023-04-03T03:20:07;6.00;;;4.33;;
12554;SDS011;6343;50.868;4.700;2023-04-03T03:22:34;5.43;;;4.33;;
12554;SDS011;6343;50.868;4.700;2023-04-03T03:25:00;6.60;;;4.53;;
12554;SDS011;6343;50.868;4.700;2023-04-03T03:27:27;6.43;;;4.90;;
12554;SDS011;6343;50.868;4.700;2023-04-03T03:29:53;8.43;;;4.30;;
12554;SDS011;6343;50.868;4.700;2023-04-03T03:32:19;6.77;;;4.23;;
12554;SDS011;6343;50.868;4.700;2023-04-03T03:34:45;5.77;;;4.27;;
12554;SDS011;6343;50.868;4.700;2023-04-03T03:37:11;6.47;;;4.33;;
12554;SDS011;6343;50.868;4.700;2023-04-03T03:39:38;7.57;;;4.50;;
12554;SDS011;6343;50.868;4.700;2023-04-03T03:42:04;6.07;;;4.67;;
12554;SDS011;6343;50.868;4.700;2023-04-03T03:44:30;4.93;;;4.07;;
12554;SDS011;6343;50.868;4.700;2023-04-03T03:46:56;7.17;;;4.30;;
12554;SDS011;6343;50.868;4.700;2023-04-03T03:49:22;4.63;;;4.00;;
12554;SDS011;6343;50.868;4.700;2023-04-03T03:51:48;9.40;;;5.30;;
12554;SDS011;6343;50.868;4.700;2023-04-03T03:54:16;4.10;;;3.70;;
12554;SDS011;6343;50.868;4.700;2023-04-03T03:56:42;7.37;;;4.33;;
12554;SDS011;6343;50.868;4.700;2023-04-03T03:59:08;5.40;;;4.03;;
12554;SDS011;6343;50.868;4.700;2023-04-03T04:01:34;5.93;;;4.37;;
12554;SDS011;6343;50.868;4.700;2023-04-03T04:04:00;5.80;;;3.73;;
12554;SDS011;6343;50.868;4.700;2023-04-03T04:06:26;7.37;;;4.57;;
12554;SDS011;6343;50.868;4.700;2023-04-03T04:08:52;6.23;;;4.10;;
12554;SDS011;6343;50.868;4.700;2023-04-03T04:11:19;6.23;;;4.50;;
12554;SDS011;6343;50.868;4.700;2023-04-03T04:13:46;6.07;;;4.37;;
12554;SDS011;6343;50.868;4.700;2023-04-03T04:16:12;5.03;;;4.53;;
12554;SDS011;6343;50.868;4.700;2023-04-03T04:18:38;6.17;;;4.13;;
12554;SDS011;6343;50.868;4.700;2023-04-03T04:21:04;5.63;;;4.40;;
12554;SDS011;6343;50.868;4.700;2023-04-03T04:23:30;6.17;;;4.80;;
12554;SDS011;6343;50.868;4.700;2023-04-03T04:25:56;6.67;;;4.70;;
12554;SDS011;6343;50.868;4.700;2023-04-03T04:28:23;8.20;;;5.07;;
12554;SDS011;6343;50.868;4.700;2023-04-03T04:30:49;6.00;;;4.67;;
12554;SDS011;6343;50.868;4.700;2023-04-03T04:33:15;8.10;;;4.60;;
12554;SDS011;6343;50.868;4.700;2023-04-03T04:35:42;6.40;;;4.80;;
12554;SDS011;6343;50.868;4.700;2023-04-03T04:38:08;9.10;;;4.60;;
12554;SDS011;6343;50.868;4.700;2023-04-03T04:40:34;10.70;;;5.00;;
12554;SDS011;6343;50.868;4.700;2023-04-03T04:43:02;6.40;;;4.60;;
12554;SDS011;6343;50.868;4.700;2023-04-03T04:45:28;8.00;;;4.43;;
12554;SDS011;6343;50.868;4.700;2023-04-03T04:47:55;8.13;;;4.43;;
12554;SDS011;6343;50.868;4.700;2023-04-03T04:50:21;4.93;;;4.40;;
12554;SDS011;6343;50.868;4.700;2023-04-03T04:52:47;8.70;;;5.20;;
12554;SDS011;6343;50.868;4.700;2023-04-03T04:55:13;10.53;;;5.27;;
12554;SDS011;6343;50.868;4.700;2023-04-03T04:57:40;6.77;;;4.93;;
12554;SDS011;6343;50.868;4.700;2023-04-03T05:00:06;8.67;;;4.97;;
12554;SDS011;6343;50.868;4.700;2023-04-03T05:02:32;7.53;;;5.30;;
12554;SDS011;6343;50.868;4.700;2023-04-03T05:04:58;6.90;;;4.57;;
12554;SDS011;6343;50.868;4.700;2023-04-03T05:07:24;7.57;;;4.77;;
12554;SDS011;6343;50.868;4.700;2023-04-03T05:09:50;9.90;;;5.00;;
12554;SDS011;6343;50.868;4.700;2023-04-03T05:12:16;7.13;;;4.97;;
12554;SDS011;6343;50.868;4.700;2023-04-03T05:14:42;7.83;;;4.93;;
12554;SDS011;6343;50.868;4.700;2023-04-03T05:17:09;7.63;;;5.00;;
12554;SDS011;6343;50.868;4.700;2023-04-03T05:19:35;8.13;;;5.03;;
12554;SDS011;6343;50.868;4.700;2023-04-03T05:22:01;9.03;;;6.10;;
12554;SDS011;6343;50.868;4.700;2023-04-03T05:24:27;9.20;;;6.73;;
12554;SDS011;6343;50.868;4.700;2023-04-03T05:26:53;7.83;;;5.90;;
12554;SDS011;6343;50.868;4.700;2023-04-03T05:29:20;8.17;;;5.73;;
12554;SDS011;6343;50.868;4.700;2023-04-03T05:31:48;6.07;;;4.93;;
12554;SDS011;6343;50.868;4.700;2023-04-03T05:34:15;7.70;;;5.70;;
12554;SDS011;6343;50.868;4.700;2023-04-03T05:36:41;8.50;;;5.30;;
12554;SDS011;6343;50.868;4.700;2023-04-03T05:39:08;6.80;;;5.37;;
12554;SDS011;6343;50.868;4.700;2023-04-03T05:41:34;9.87;;;5.47;;
12554;SDS011;6343;50.868;4.700;2023-04-03T05:44:00;7.03;;;5.43;;
12554;SDS011;6343;50.868;4.700;2023-04-03T05:46:26;8.73;;;5.33;;
12554;SDS011;6343;50.868;4.700;2023-04-03T05:48:52;9.00;;;6.23;;
12554;SDS011;6343;50.868;4.700;2023-04-03T05:51:22;8.07;;;5.93;;
12554;SDS011;6343;50.868;4.700;2023-04-03T05:53:52;7.20;;;6.10;;
12554;SDS011;6343;50.868;4.700;2023-04-03T05:56:21;8.27;;;6.03;;
12554;SDS011;6343;50.868;4.700;2023-04-03T05:58:47;9.13;;;6.60;;
12554;SDS011;6343;50.868;4.700;2023-04-03T06:01:13;9.40;;;5.97;;
12554;SDS011;6343;50.868;4.700;2023-04-03T06:03:41;9.97;;;6.20;;
12554;SDS011;6343;50.868;4.700;2023-04-03T06:06:07;10.40;;;6.17;;
12554;SDS011;6343;50.868;4.700;2023-04-03T06:08:33;12.47;;;6.63;;
12554;SDS011;6343;50.868;4.700;2023-04-03T06:11:00;7.77;;;6.50;;
12554;SDS011;6343;50.868;4.700;2023-04-03T06:13:27;9.80;;;6.87;;
12554;SDS011;6343;50.868;4.700;2023-04-03T06:15:53;14.97;;;6.00;;
12554;SDS011;6343;50.868;4.700;2023-04-03T06:18:20;9.93;;;5.67;;
12554;SDS011;6343;50.868;4.700;2023-04-03T06:20:46;12.07;;;7.10;;
12554;SDS011;6343;50.868;4.700;2023-04-03T06:23:12;10.27;;;6.50;;
12554;SDS011;6343;50.868;4.700;2023-04-03T06:25:38;9.80;;;6.80;;
12554;SDS011;6343;50.868;4.700;2023-04-03T06:28:05;8.97;;;6.67;;
12554;SDS011;6343;50.868;4.700;2023-04-03T06:30:34;8.37;;;6.77;;
12554;SDS011;6343;50.868;4.700;2023-04-03T06:33:00;9.73;;;6.60;;
12554;SDS011;6343;50.868;4.700;2023-04-03T06:35:26;9.60;;;6.60;;
12554;SDS011;6343;50.868;4.700;2023-04-03T06:37:53;8.60;;;6.40;;
12554;SDS011;6343;50.868;4.700;2023-04-03T06:40:22;13.60;;;6.70;;
12554;SDS011;6343;50.868;4.700;2023-04-03T06:42:48;13.67;;;7.10;;
12554;SDS011;6343;50.868;4.700;2023-04-03T06:45:14;8.90;;;6.17;;
12554;SDS011;6343;50.868;4.700;2023-04-03T06:47:40;10.93;;;7.13;;
12554;SDS011;6343;50.868;4.700;2023-04-03T06:50:07;10.53;;;6.33;;
12554;SDS011;6343;50.868;4.700;2023-04-03T06:52:34;7.70;;;5.97;;
12554;SDS011;6343;50.868;4.700;2023-04-03T06:55:00;8.17;;;6.13;;
12554;SDS011;6343;50.868;4.700;2023-04-03T06:57:26;14.17;;;6.13;;
12554;SDS011;6343;50.868;4.700;2023-04-03T06:59:52;8.23;;;6.17;;
12554;SDS011;6343;50.868;4.700;2023-04-03T07:02:18;9.40;;;5.80;;
12554;SDS011;6343;50.868;4.700;2023-04-03T07:04:45;14.90;;;6.20;;
12554;SDS011;6343;50.868;4.700;2023-04-03T07:07:11;10.33;;;6.00;;
12554;SDS011;6343;50.868;4.700;2023-04-03T07:09:38;10.67;;;5.23;;
12554;SDS011;6343;50.868;4.700;2023-04-03T07:12:04;8.90;;;5.50;;
12554;SDS011;6343;50.868;4.700;2023-04-03T07:14:30;8.57;;;5.83;;
12554;SDS011;6343;50.868;4.700;2023-04-03T07:16:56;12.97;;;5.43;;
12554;SDS011;6343;50.868;4.700;2023-04-03T07:19:22;9.63;;;5.60;;
12554;SDS011;6343;50.868;4.700;2023-04-03T07:21:52;8.60;;;5.33;;
12554;SDS011;6343;50.868;4.700;2023-04-03T07:24:18;7.77;;;5.33;;
12554;SDS011;6343;50.868;4.700;2023-04-03T07:26:44;7.63;;;5.43;;
12554;SDS011;6343;50.868;4.700;2023-04-03T07:29:10;6.57;;;4.63;;
12554;SDS011;6343;50.868;4.700;2023-04-03T07:31:36;10.47;;;5.73;;
12554;SDS011;6343;50.868;4.700;2023-04-03T07:34:04;10.60;;;5.70;;
12554;SDS011;6343;50.868;4.700;2023-04-03T07:36:30;7.27;;;5.00;;
12554;SDS011;6343;50.868;4.700;2023-04-03T07:38:58;7.33;;;4.80;;
12554;SDS011;6343;50.868;4.700;2023-04-03T07:41:24;9.17;;;4.87;;
12554;SDS011;6343;50.868;4.700;2023-04-03T07:43:51;8.07;;;4.90;;
12554;SDS011;6343;50.868;4.700;2023-04-03T07:46:17;9.97;;;5.27;;
12554;SDS011;6343;50.868;4.700;2023-04-03T07:48:44;7.37;;;4.77;;
12554;SDS011;6343;50.868;4.700;2023-04-03T07:51:10;8.53;;;4.50;;
12554;SDS011;6343;50.868;4.700;2023-04-03T07:53:36;6.77;;;4.50;;
12554;SDS011;6343;50.868;4.700;2023-04-03T07:56:02;10.57;;;4.97;;
12554;SDS011;6343;50.868;4.700;2023-04-03T07:58:29;7.13;;;4.40;;
12554;SDS011;6343;50.868;4.700;2023-04-03T08:00:55;11.30;;;4.47;;
12554;SDS011;6343;50.868;4.700;2023-04-03T08:03:21;7.17;;;3.97;;
12554;SDS011;6343;50.868;4.700;2023-04-03T08:05:48;6.77;;;4.23;;
12554;SDS011;6343;50.868;4.700;2023-04-03T08:08:18;8.77;;;4.10;;
12554;SDS011;6343;50.868;4.700;2023-04-03T08:10:48;6.53;;;4.13;;
12554;SDS011;6343;50.868;4.700;2023-04-03T08:13:14;4.63;;;3.77;;
12554;SDS011;6343;50.868;4.700;2023-04-03T08:15:40;5.80;;;3.90;;
12554;SDS011;6343;50.868;4.700;2023-04-03T08:18:07;7.57;;;4.30;;
12554;SDS011;6343;50.868;4.700;2023-04-03T08:20:33;6.13;;;4.00;;
12554;SDS011;6343;50.868;4.700;2023-04-03T08:22:59;4.60;;;3.30;;
12554;SDS011;6343;50.868;4.700;2023-04-03T08:25:25;7.50;;;3.87;;
12554;SDS011;6343;50.868;4.700;2023-04-03T08:27:51;5.63;;;3.57;;
12554;SDS011;6343;50.868;4.700;2023-04-03T08:30:17;8.80;;;4.20;;
12554;SDS011;6343;50.868;4.700;2023-04-03T08:32:43;9.83;;;3.63;;
12554;SDS011;6343;50.868;4.700;2023-04-03T08:35:10;12.13;;;3.90;;
12554;SDS011;6343;50.868;4.700;2023-04-03T08:37:36;9.53;;;3.63;;
12554;SDS011;6343;50.868;4.700;2023-04-03T08:40:04;4.50;;;3.53;;
12554;SDS011;6343;50.868;4.700;2023-04-03T08:42:48;5.07;;;3.33;;
12554;SDS011;6343;50.868;4.700;2023-04-03T08:45:20;5.30;;;3.43;;
12554;SDS011;6343;50.868;4.700;2023-04-03T08:48:03;7.77;;;3.40;;
12554;SDS011;6343;50.868;4.700;2023-04-03T08:50:43;7.33;;;3.00;;
12554;SDS011;6343;50.868;4.700;2023-04-03T08:53:12;5.70;;;3.10;;
12554;SDS011;6343;50.868;4.700;2023-04-03T08:55:44;6.17;;;2.93;;
12554;SDS011;6343;50.868;4.700;2023-04-03T08:58:21;5.93;;;3.03;;
12554;SDS011;6343;50.868;4.700;2023-04-03T09:01:10;4.13;;;2.77;;
12554;SDS011;6343;50.868;4.700;2023-04-03T09:03:38;17.77;;;3.27;;
12554;SDS011;6343;50.868;4.700;2023-04-03T09:08:46;6.77;;;2.80;;
12554;SDS011;6343;50.868;4.700;2023-04-03T09:11:23;7.73;;;2.80;;
12554;SDS011;6343;50.868;4.700;2023-04-03T09:19:44;5.30;;;2.23;;
12554;SDS011;6343;50.868;4.700;2023-04-03T09:21:50;3.47;;;2.53;;
12554;SDS011;6343;50.868;4.700;2023-04-03T09:24:16;5.60;;;2.50;;
12554;SDS011;6343;50.868;4.700;2023-04-03T09:29:17;5.53;;;1.90;;
12554;SDS011;6343;50.868;4.700;2023-04-03T09:31:44;5.57;;;2.37;;
12554;SDS011;6343;50.868;4.700;2023-04-03T09:34:22;5.33;;;2.37;;
12554;SDS011;6343;50.868;4.700;2023-04-03T09:36:53;5.47;;;2.20;;
12554;SDS011;6343;50.868;4.700;2023-04-03T09:39:21;6.13;;;2.17;;
12554;SDS011;6343;50.868;4.700;2023-04-03T09:44:27;2.63;;;2.03;;
12554;SDS011;6343;50.868;4.700;2023-04-03T09:46:54;5.00;;;2.77;;
12554;SDS011;6343;50.868;4.700;2023-04-03T09:49:20;3.33;;;2.40;;
12554;SDS011;6343;50.868;4.700;2023-04-03T09:51:46;4.37;;;2.23;;
12554;SDS011;6343;50.868;4.700;2023-04-03T09:54:55;7.00;;;2.50;;
12554;SDS011;6343;50.868;4.700;2023-04-03T09:57:07;3.70;;;2.43;;
12554;SDS011;6343;50.868;4.700;2023-04-03T09:59:34;3.83;;;2.50;;
12554;SDS011;6343;50.868;4.700;2023-04-03T10:02:17;3.83;;;2.47;;
12554;SDS011;6343;50.868;4.700;2023-04-03T10:04:46;5.63;;;2.53;;
12554;SDS011;6343;50.868;4.700;2023-04-03T10:09:54;6.93;;;3.03;;
12554;SDS011;6343;50.868;4.700;2023-04-03T10:12:21;6.53;;;2.30;;
12554;SDS011;6343;50.868;4.700;2023-04-03T10:14:55;8.53;;;2.93;;
12554;SDS011;6343;50.868;4.700;2023-04-03T10:22:39;4.30;;;2.47;;
12554;SDS011;6343;50.868;4.700;2023-04-03T10:30:26;2.90;;;2.07;;
12554;SDS011;6343;50.868;4.700;2023-04-03T10:32:58;3.30;;;2.00;;
12554;SDS011;6343;50.868;4.700;2023-04-03T10:53:49;3.07;;;1.53;;
12554;SDS011;6343;50.868;4.700;2023-04-03T10:56:35;8.90;;;2.43;;
12554;SDS011;6343;50.868;4.700;2023-04-03T11:01:35;4.37;;;1.50;;
12554;SDS011;6343;50.868;4.700;2023-04-03T11:04:04;5.37;;;1.50;;
12554;SDS011;6343;50.868;4.700;2023-04-03T11:06:32;5.20;;;1.90;;
12554;SDS011;6343;50.868;4.700;2023-04-03T11:09:07;6.87;;;1.90;;
12554;SDS011;6343;50.868;4.700;2023-04-03T11:11:37;5.37;;;2.03;;
12554;SDS011;6343;50.868;4.700;2023-04-03T11:19:34;7.50;;;2.00;;
12554;SDS011;6343;50.868;4.700;2023-04-03T11:22:13;4.30;;;1.70;;
12554;SDS011;6343;50.868;4.700;2023-04-03T11:24:42;2.87;;;1.67;;
12554;SDS011;6343;50.868;4.700;2023-04-03T11:27:15;7.90;;;2.17;;
12554;SDS011;6343;50.868;4.700;2023-04-03T11:29:43;5.93;;;1.80;;
12554;SDS011;6343;50.868;4.700;2023-04-03T11:34:42;3.67;;;1.53;;
12554;SDS011;6343;50.868;4.700;2023-04-03T11:37:29;4.80;;;1.20;;
12554;SDS011;6343;50.868;4.700;2023-04-03T11:40:19;3.23;;;1.60;;
12554;SDS011;6343;50.868;4.700;2023-04-03T11:43:04;3.83;;;1.57;;
12554;SDS011;6343;50.868;4.700;2023-04-03T11:45:33;4.63;;;2.13;;
12554;SDS011;6343;50.868;4.700;2023-04-03T11:48:01;2.87;;;1.90;;
12554;SDS011;6343;50.868;4.700;2023-04-03T11:53:01;5.00;;;2.37;;
12554;SDS011;6343;50.868;4.700;2023-04-03T11:55:41;4.07;;;1.90;;
12554;SDS011;6343;50.868;4.700;2023-04-03T11:58:12;2.10;;;1.70;;
12554;SDS011;6343;50.868;4.700;2023-04-03T12:05:56;3.23;;;1.87;;
12554;SDS011;6343;50.868;4.700;2023-04-03T12:08:26;6.20;;;2.43;;
12554;SDS011;6343;50.868;4.700;2023-04-03T12:16:33;2.07;;;1.40;;
12554;SDS011;6343;50.868;4.700;2023-04-03T12:26:46;3.97;;;1.50;;
12554;SDS011;6343;50.868;4.700;2023-04-03T12:45:20;2.63;;;1.20;;
12554;SDS011;6343;50.868;4.700;2023-04-03T12:47:48;1.97;;;1.30;;
12554;SDS011;6343;50.868;4.700;2023-04-03T12:50:20;2.63;;;1.30;;
12554;SDS011;6343;50.868;4.700;2023-04-03T12:52:54;5.53;;;1.40;;
12554;SDS011;6343;50.868;4.700;2023-04-03T12:55:22;2.57;;;1.53;;
12554;SDS011;6343;50.868;4.700;2023-04-03T12:57:48;5.83;;;2.13;;
12554;SDS011;6343;50.868;4.700;2023-04-03T13:00:22;3.70;;;1.80;;
12554;SDS011;6343;50.868;4.700;2023-04-03T13:02:48;3.93;;;1.43;;
12554;SDS011;6343;50.868;4.700;2023-04-03T13:05:16;11.97;;;1.60;;
12554;SDS011;6343;50.868;4.700;2023-04-03T13:07:44;3.30;;;1.70;;
12554;SDS011;6343;50.868;4.700;2023-04-03T13:12:53;3.37;;;1.90;;
12554;SDS011;6343;50.868;4.700;2023-04-03T13:17:45;7.80;;;1.83;;
12554;SDS011;6343;50.868;4.700;2023-04-03T13:25:21;3.50;;;1.90;;
12554;SDS011;6343;50.868;4.700;2023-04-03T13:27:48;6.03;;;1.80;;
12554;SDS011;6343;50.868;4.700;2023-04-03T13:30:18;4.23;;;1.60;;
12554;SDS011;6343;50.868;4.700;2023-04-03T13:32:45;2.97;;;1.43;;
12554;SDS011;6343;50.868;4.700;2023-04-03T13:35:31;1.50;;;1.20;;
12554;SDS011;6343;50.868;4.700;2023-04-03T13:38:04;3.87;;;1.50;;
12554;SDS011;6343;50.868;4.700;2023-04-03T13:40:30;3.10;;;1.40;;
12554;SDS011;6343;50.868;4.700;2023-04-03T13:43:39;1.93;;;1.20;;
12554;SDS011;6343;50.868;4.700;2023-04-03T13:48:21;6.40;;;1.33;;
12554;SDS011;6343;50.868;4.700;2023-04-03T13:53:17;3.60;;;1.30;;
12554;SDS011;6343;50.868;4.700;2023-04-03T13:58:24;3.23;;;1.30;;
12554;SDS011;6343;50.868;4.700;2023-04-03T14:00:52;2.40;;;1.30;;
12554;SDS011;6343;50.868;4.700;2023-04-03T14:05:57;3.67;;;1.10;;
12554;SDS011;6343;50.868;4.700;2023-04-03T14:08:23;3.30;;;1.27;;
12554;SDS011;6343;50.868;4.700;2023-04-03T14:10:49;3.90;;;1.30;;
12554;SDS011;6343;50.868;4.700;2023-04-03T14:13:16;2.53;;;1.53;;
12554;SDS011;6343;50.868;4.700;2023-04-03T14:15:43;1.93;;;1.33;;
12554;SDS011;6343;50.868;4.700;2023-04-03T14:18:11;1.90;;;1.30;;
12554;SDS011;6343;50.868;4.700;2023-04-03T14:20:37;29.90;;;3.83;;
12554;SDS011;6343;50.868;4.700;2023-04-03T14:23:03;3.80;;;1.40;;
12554;SDS011;6343;50.868;4.700;2023-04-03T14:25:29;1.80;;;1.30;;
12554;SDS011;6343;50.868;4.700;2023-04-03T14:27:55;2.13;;;1.17;;
12554;SDS011;6343;50.868;4.700;2023-04-03T14:32:48;2.10;;;1.50;;
12554;SDS011;6343;50.868;4.700;2023-04-03T14:35:15;12.30;;;2.03;;
12554;SDS011;6343;50.868;4.700;2023-04-03T14:37:42;7.47;;;1.70;;
12554;SDS011;6343;50.868;4.700;2023-04-03T14:40:11;3.97;;;1.60;;
12554;SDS011;6343;50.868;4.700;2023-04-03T14:42:38;5.70;;;2.37;;
12554;SDS011;6343;50.868;4.700;2023-04-03T14:45:06;4.97;;;1.70;;
12554;SDS011;6343;50.868;4.700;2023-04-03T14:47:33;2.50;;;1.57;;
12554;SDS011;6343;50.868;4.700;2023-04-03T14:50:01;2.70;;;1.70;;
12554;SDS011;6343;50.868;4.700;2023-04-03T14:52:30;5.30;;;1.80;;
12554;SDS011;6343;50.868;4.700;2023-04-03T14:54:56;3.87;;;1.50;;
12554;SDS011;6343;50.868;4.700;2023-04-03T14:57:23;2.87;;;1.70;;
12554;SDS011;6343;50.868;4.700;2023-04-03T14:59:51;3.23;;;1.70;;
12554;SDS011;6343;50.868;4.700;2023-04-03T15:04:49;4.67;;;2.00;;
12554;SDS011;6343;50.868;4.700;2023-04-03T15:07:15;4.17;;;1.90;;
12554;SDS011;6343;50.868;4.700;2023-04-03T15:09:41;2.97;;;1.70;;
12554;SDS011;6343;50.868;4.700;2023-04-03T15:12:08;4.07;;;2.03;;
12554;SDS011;6343;50.868;4.700;2023-04-03T15:14:35;4.47;;;1.90;;
12554;SDS011;6343;50.868;4.700;2023-04-03T15:17:01;2.03;;;1.40;;
12554;SDS011;6343;50.868;4.700;2023-04-03T15:19:29;2.27;;;1.80;;
12554;SDS011;6343;50.868;4.700;2023-04-03T15:21:55;8.80;;;1.90;;
12554;SDS011;6343;50.868;4.700;2023-04-03T15:24:21;2.97;;;1.50;;
12554;SDS011;6343;50.868;4.700;2023-04-03T15:26:47;5.43;;;1.90;;
12554;SDS011;6343;50.868;4.700;2023-04-03T15:29:13;4.13;;;1.77;;
12554;SDS011;6343;50.868;4.700;2023-04-03T15:31:40;2.80;;;1.70;;
12554;SDS011;6343;50.868;4.700;2023-04-03T15:34:06;4.07;;;1.87;;
12554;SDS011;6343;50.868;4.700;2023-04-03T15:36:32;4.63;;;2.00;;
12554;SDS011;6343;50.868;4.700;2023-04-03T15:38:58;2.83;;;1.90;;
12554;SDS011;6343;50.868;4.700;2023-04-03T15:41:24;2.80;;;1.90;;
12554;SDS011;6343;50.868;4.700;2023-04-03T15:43:50;2.60;;;1.60;;
12554;SDS011;6343;50.868;4.700;2023-04-03T15:46:16;5.13;;;2.00;;
12554;SDS011;6343;50.868;4.700;2023-04-03T15:49:01;4.57;;;1.60;;
12554;SDS011;6343;50.868;4.700;2023-04-03T15:51:27;3.27;;;1.90;;
12554;SDS011;6343;50.868;4.700;2023-04-03T15:53:53;4.37;;;1.73;;
12554;SDS011;6343;50.868;4.700;2023-04-03T15:56:19;3.47;;;2.10;;
12554;SDS011;6343;50.868;4.700;2023-04-03T15:58:46;6.70;;;1.93;;
12554;SDS011;6343;50.868;4.700;2023-04-03T16:01:12;2.17;;;1.80;;
12554;SDS011;6343;50.868;4.700;2023-04-03T16:03:39;3.93;;;1.80;;
12554;SDS011;6343;50.868;4.700;2023-04-03T16:06:10;3.70;;;1.70;;
12554;SDS011;6343;50.868;4.700;2023-04-03T16:08:36;2.97;;;2.10;;
12554;SDS011;6343;50.868;4.700;2023-04-03T16:11:03;4.53;;;1.63;;
12554;SDS011;6343;50.868;4.700;2023-04-03T16:13:29;3.33;;;1.80;;
12554;SDS011;6343;50.868;4.700;2023-04-03T16:15:55;5.00;;;2.00;;
12554;SDS011;6343;50.868;4.700;2023-04-03T16:18:22;6.97;;;2.10;;
12554;SDS011;6343;50.868;4.700;2023-04-03T16:20:48;2.43;;;1.87;;
12554;SDS011;6343;50.868;4.700;2023-04-03T16:23:14;2.87;;;1.80;;
12554;SDS011;6343;50.868;4.700;2023-04-03T16:25:40;3.23;;;1.80;;
12554;SDS011;6343;50.868;4.700;2023-04-03T16:28:11;3.23;;;2.10;;
12554;SDS011;6343;50.868;4.700;2023-04-03T16:30:37;3.20;;;1.97;;
12554;SDS011;6343;50.868;4.700;2023-04-03T16:33:05;5.67;;;1.70;;
12554;SDS011;6343;50.868;4.700;2023-04-03T16:35:31;3.80;;;1.80;;
12554;SDS011;6343;50.868;4.700;2023-04-03T16:37:57;5.40;;;2.30;;
12554;SDS011;6343;50.868;4.700;2023-04-03T16:40:23;6.97;;;2.20;;
12554;SDS011;6343;50.868;4.700;2023-04-03T16:42:49;3.97;;;2.00;;
12554;SDS011;6343;50.868;4.700;2023-04-03T16:45:15;5.67;;;1.90;;
12554;SDS011;6343;50.868;4.700;2023-04-03T16:47:42;11.17;;;2.10;;
12554;SDS011;6343;50.868;4.700;2023-04-03T16:50:08;4.47;;;2.00;;
12554;SDS011;6343;50.868;4.700;2023-04-03T16:52:34;10.47;;;1.70;;
12554;SDS011;6343;50.868;4.700;2023-04-03T16:55:00;3.20;;;1.50;;
12554;SDS011;6343;50.868;4.700;2023-04-03T16:57:26;4.47;;;2.00;;
12554;SDS011;6343;50.868;4.700;2023-04-03T16:59:53;4.53;;;1.30;;
12554;SDS011;6343;50.868;4.700;2023-04-03T17:02:19;6.47;;;1.60;;
12554;SDS011;6343;50.868;4.700;2023-04-03T17:04:46;2.60;;;1.87;;
12554;SDS011;6343;50.868;4.700;2023-04-03T17:07:12;5.20;;;1.70;;